sensor_id;sensor_type;location;lat;lon;timestamp;P1;durP1;ratioP1;P2;durP2;ratioP2
70457;SDS011;57919;56.194;95.716;2023-07-31T00:03:43;12.53;;;4.87;;
70457;SDS011;57919;56.194;95.716;2023-07-31T00:13:44;7.67;;;5.40;;
70457;SDS011;57919;56.194;95.716;2023-07-31T00:23:46;8.10;;;4.88;;
70457;SDS011;57919;56.194;95.716;2023-07-31T00:33:48;12.50;;;5.90;;
70457;SDS011;57919;56.194;95.716;2023-07-31T00:43:50;10.33;;;5.93;;
70457;SDS011;57919;56.194;95.716;2023-07-31T00:53:52;9.10;;;4.70;;
70457;SDS011;57919;56.194;95.716;2023-07-31T01:03:55;9.17;;;5.07;;
70457;SDS011;57919;56.194;95.716;2023-07-31T01:13:57;9.15;;;5.18;;
70457;SDS011;57919;56.194;95.716;2023-07-31T01:34:30;9.00;;;3.97;;
70457;SDS011;57919;56.194;95.716;2023-07-31T01:44:34;8.27;;;4.60;;
70457;SDS011;57919;56.194;95.716;2023-07-31T01:54:36;9.97;;;6.20;;
70457;SDS011;57919;56.194;95.716;2023-07-31T02:04:38;8.35;;;4.90;;
70457;SDS011;57919;56.194;95.716;2023-07-31T02:14:44;7.20;;;4.20;;
70457;SDS011;57919;56.194;95.716;2023-07-31T02:24:47;8.67;;;4.13;;
70457;SDS011;57919;56.194;95.716;2023-07-31T02:34:49;9.93;;;4.60;;
70457;SDS011;57919;56.194;95.716;2023-07-31T02:44:52;8.17;;;4.30;;
70457;SDS011;57919;56.194;95.716;2023-07-31T02:54:57;6.65;;;4.00;;
70457;SDS011;57919;56.194;95.716;2023-07-31T03:04:59;8.67;;;5.10;;
70457;SDS011;57919;56.194;95.716;2023-07-31T03:15:02;6.80;;;4.30;;
70457;SDS011;57919;56.194;95.716;2023-07-31T03:25:06;6.27;;;4.33;;
70457;SDS011;57919;56.194;95.716;2023-07-31T03:35:08;7.73;;;5.70;;
70457;SDS011;57919;56.194;95.716;2023-07-31T03:45:10;7.22;;;5.07;;
70457;SDS011;57919;56.194;95.716;2023-07-31T03:55:12;8.37;;;4.77;;
70457;SDS011;57919;56.194;95.716;2023-07-31T04:05:14;8.63;;;4.50;;
70457;SDS011;57919;56.194;95.716;2023-07-31T04:15:16;9.40;;;5.27;;
70457;SDS011;57919;56.194;95.716;2023-07-31T04:25:18;8.10;;;4.40;;
70457;SDS011;57919;56.194;95.716;2023-07-31T04:35:21;6.07;;;4.28;;
70457;SDS011;57919;56.194;95.716;2023-07-31T04:45:23;6.30;;;3.53;;
70457;SDS011;57919;56.194;95.716;2023-07-31T04:55:25;5.93;;;3.63;;
70457;SDS011;57919;56.194;95.716;2023-07-31T05:05:27;16.13;;;10.73;;
70457;SDS011;57919;56.194;95.716;2023-07-31T05:15:29;11.07;;;7.07;;
70457;SDS011;57919;56.194;95.716;2023-07-31T05:25:31;10.25;;;4.68;;
70457;SDS011;57919;56.194;95.716;2023-07-31T05:35:33;6.20;;;4.07;;
70457;SDS011;57919;56.194;95.716;2023-07-31T05:45:35;10.33;;;4.33;;
70457;SDS011;57919;56.194;95.716;2023-07-31T05:55:38;6.37;;;4.40;;
70457;SDS011;57919;56.194;95.716;2023-07-31T06:05:40;7.73;;;5.00;;
70457;SDS011;57919;56.194;95.716;2023-07-31T06:15:42;7.38;;;4.60;;
70457;SDS011;57919;56.194;95.716;2023-07-31T06:25:44;8.40;;;4.67;;
70457;SDS011;57919;56.194;95.716;2023-07-31T06:35:46;7.80;;;5.00;;
70457;SDS011;57919;56.194;95.716;2023-07-31T06:45:48;7.60;;;4.33;;
70457;SDS011;57919;56.194;95.716;2023-07-31T06:55:52;7.87;;;3.80;;
70457;SDS011;57919;56.194;95.716;2023-07-31T07:05:54;7.57;;;3.90;;
70457;SDS011;57919;56.194;95.716;2023-07-31T07:15:56;6.10;;;3.50;;
70457;SDS011;57919;56.194;95.716;2023-07-31T07:25:59;6.73;;;4.03;;
70457;SDS011;57919;56.194;95.716;2023-07-31T07:36:01;8.10;;;3.90;;
70457;SDS011;57919;56.194;95.716;2023-07-31T07:46:03;12.17;;;5.03;;
70457;SDS011;57919;56.194;95.716;2023-07-31T07:56:05;13.60;;;4.63;;
70457;SDS011;57919;56.194;95.716;2023-07-31T08:06:07;10.40;;;4.90;;
70457;SDS011;57919;56.194;95.716;2023-07-31T08:16:10;7.00;;;4.30;;
70457;SDS011;57919;56.194;95.716;2023-07-31T08:26:15;7.03;;;3.67;;
70457;SDS011;57919;56.194;95.716;2023-07-31T08:36:20;8.00;;;4.07;;
70457;SDS011;57919;56.194;95.716;2023-07-31T08:46:22;6.95;;;3.90;;
70457;SDS011;57919;56.194;95.716;2023-07-31T08:56:25;7.70;;;3.57;;
70457;SDS011;57919;56.194;95.716;2023-07-31T09:06:28;8.67;;;4.00;;
70457;SDS011;57919;56.194;95.716;2023-07-31T09:16:31;7.30;;;4.00;;
70457;SDS011;57919;56.194;95.716;2023-07-31T09:26:35;9.60;;;3.67;;
70457;SDS011;57919;56.194;95.716;2023-07-31T09:36:50;7.65;;;4.60;;
70457;SDS011;57919;56.194;95.716;2023-07-31T09:46:54;7.17;;;4.20;;
70457;SDS011;57919;56.194;95.716;2023-07-31T09:56:56;7.20;;;4.40;;
70457;SDS011;57919;56.194;95.716;2023-07-31T10:07:01;7.50;;;4.60;;
70457;SDS011;57919;56.194;95.716;2023-07-31T10:17:05;7.97;;;4.50;;
70457;SDS011;57919;56.194;95.716;2023-07-31T10:27:09;8.80;;;5.00;;
70457;SDS011;57919;56.194;95.716;2023-07-31T10:37:27;20.47;;;5.00;;
70457;SDS011;57919;56.194;95.716;2023-07-31T10:47:38;8.97;;;4.53;;
70457;SDS011;57919;56.194;95.716;2023-07-31T10:57:47;8.67;;;4.50;;
70457;SDS011;57919;56.194;95.716;2023-07-31T11:07:49;6.97;;;4.50;;
70457;SDS011;57919;56.194;95.716;2023-07-31T11:17:51;8.35;;;4.68;;
70457;SDS011;57919;56.194;95.716;2023-07-31T11:27:53;10.23;;;5.20;;
70457;SDS011;57919;56.194;95.716;2023-07-31T11:37:57;7.73;;;4.50;;
70457;SDS011;57919;56.194;95.716;2023-07-31T11:47:59;9.03;;;6.40;;
70457;SDS011;57919;56.194;95.716;2023-07-31T11:58:02;7.00;;;4.90;;
70457;SDS011;57919;56.194;95.716;2023-07-31T12:08:11;8.63;;;5.18;;
70457;SDS011;57919;56.194;95.716;2023-07-31T12:18:13;13.27;;;6.20;;
70457;SDS011;57919;56.194;95.716;2023-07-31T12:28:17;15.00;;;6.23;;
70457;SDS011;57919;56.194;95.716;2023-07-31T12:38:23;10.87;;;5.60;;
70457;SDS011;57919;56.194;95.716;2023-07-31T12:48:25;18.10;;;7.07;;
70457;SDS011;57919;56.194;95.716;2023-07-31T12:58:27;14.38;;;7.43;;
70457;SDS011;57919;56.194;95.716;2023-07-31T13:08:29;26.17;;;8.80;;
70457;SDS011;57919;56.194;95.716;2023-07-31T13:18:31;18.37;;;9.33;;
70457;SDS011;57919;56.194;95.716;2023-07-31T13:28:34;21.80;;;9.17;;
70457;SDS011;57919;56.194;95.716;2023-07-31T13:38:36;28.33;;;11.90;;
70457;SDS011;57919;56.194;95.716;2023-07-31T13:48:37;42.67;;;20.50;;
70457;SDS011;57919;56.194;95.716;2023-07-31T13:58:39;35.07;;;17.07;;
70457;SDS011;57919;56.194;95.716;2023-07-31T14:08:41;43.43;;;20.60;;
70457;SDS011;57919;56.194;95.716;2023-07-31T14:18:43;55.77;;;30.00;;
70457;SDS011;57919;56.194;95.716;2023-07-31T14:28:46;50.73;;;17.33;;
70457;SDS011;57919;56.194;95.716;2023-07-31T14:38:48;42.60;;;18.15;;
70457;SDS011;57919;56.194;95.716;2023-07-31T14:48:50;44.63;;;18.17;;
70457;SDS011;57919;56.194;95.716;2023-07-31T14:58:53;48.70;;;18.17;;
70457;SDS011;57919;56.194;95.716;2023-07-31T15:08:54;43.97;;;21.33;;
70457;SDS011;57919;56.194;95.716;2023-07-31T15:18:56;55.67;;;22.83;;
70457;SDS011;57919;56.194;95.716;2023-07-31T15:29:03;54.00;;;22.13;;
70457;SDS011;57919;56.194;95.716;2023-07-31T15:39:10;56.17;;;24.40;;
70457;SDS011;57919;56.194;95.716;2023-07-31T15:49:12;48.50;;;24.27;;
70457;SDS011;57919;56.194;95.716;2023-07-31T15:59:15;36.50;;;19.37;;
70457;SDS011;57919;56.194;95.716;2023-07-31T16:09:17;33.37;;;18.47;;
70457;SDS011;57919;56.194;95.716;2023-07-31T16:19:18;37.78;;;19.88;;
70457;SDS011;57919;56.194;95.716;2023-07-31T16:29:21;36.77;;;20.47;;
70457;SDS011;57919;56.194;95.716;2023-07-31T16:39:23;37.20;;;18.27;;
70457;SDS011;57919;56.194;95.716;2023-07-31T16:49:25;32.90;;;18.07;;
70457;SDS011;57919;56.194;95.716;2023-07-31T16:59:27;35.67;;;19.67;;
70457;SDS011;57919;56.194;95.716;2023-07-31T17:09:29;36.83;;;21.23;;
70457;SDS011;57919;56.194;95.716;2023-07-31T17:19:31;44.60;;;23.17;;
70457;SDS011;57919;56.194;95.716;2023-07-31T17:29:33;43.43;;;25.57;;
70457;SDS011;57919;56.194;95.716;2023-07-31T17:39:35;35.30;;;22.90;;
70457;SDS011;57919;56.194;95.716;2023-07-31T17:49:37;33.27;;;18.07;;
70457;SDS011;57919;56.194;95.716;2023-07-31T17:59:40;30.05;;;16.98;;
70457;SDS011;57919;56.194;95.716;2023-07-31T18:09:44;34.27;;;17.03;;
70457;SDS011;57919;56.194;95.716;2023-07-31T18:19:46;26.80;;;16.77;;
70457;SDS011;57919;56.194;95.716;2023-07-31T18:29:48;26.67;;;17.93;;
70457;SDS011;57919;56.194;95.716;2023-07-31T18:39:50;28.43;;;18.20;;
70457;SDS011;57919;56.194;95.716;2023-07-31T18:49:52;32.70;;;17.42;;
70457;SDS011;57919;56.194;95.716;2023-07-31T18:59:54;34.47;;;16.30;;
70457;SDS011;57919;56.194;95.716;2023-07-31T19:09:56;20.27;;;13.47;;
70457;SDS011;57919;56.194;95.716;2023-07-31T19:19:57;19.50;;;14.07;;
70457;SDS011;57919;56.194;95.716;2023-07-31T19:30:00;24.73;;;13.57;;
70457;SDS011;57919;56.194;95.716;2023-07-31T19:40:02;22.40;;;13.82;;
70457;SDS011;57919;56.194;95.716;2023-07-31T19:50:05;19.87;;;13.57;;
70457;SDS011;57919;56.194;95.716;2023-07-31T20:00:07;22.90;;;14.97;;
70457;SDS011;57919;56.194;95.716;2023-07-31T20:10:12;25.13;;;14.57;;
70457;SDS011;57919;56.194;95.716;2023-07-31T20:20:14;22.03;;;15.00;;
70457;SDS011;57919;56.194;95.716;2023-07-31T20:30:16;24.40;;;14.88;;
70457;SDS011;57919;56.194;95.716;2023-07-31T20:40:18;24.00;;;14.27;;
70457;SDS011;57919;56.194;95.716;2023-07-31T20:50:20;22.77;;;14.43;;
70457;SDS011;57919;56.194;95.716;2023-07-31T21:00:22;23.13;;;13.60;;
70457;SDS011;57919;56.194;95.716;2023-07-31T21:10:24;23.73;;;14.60;;
70457;SDS011;57919;56.194;95.716;2023-07-31T21:20:26;25.88;;;15.98;;
70457;SDS011;57919;56.194;95.716;2023-07-31T21:30:29;25.90;;;14.80;;
70457;SDS011;57919;56.194;95.716;2023-07-31T21:40:31;22.77;;;14.10;;
70457;SDS011;57919;56.194;95.716;2023-07-31T21:50:33;20.20;;;13.60;;
70457;SDS011;57919;56.194;95.716;2023-07-31T22:00:35;23.90;;;14.33;;
70457;SDS011;57919;56.194;95.716;2023-07-31T22:10:37;26.73;;;14.20;;
70457;SDS011;57919;56.194;95.716;2023-07-31T22:20:39;28.20;;;13.80;;
70457;SDS011;57919;56.194;95.716;2023-07-31T22:30:41;38.30;;;22.80;;
70457;SDS011;57919;56.194;95.716;2023-07-31T22:40:43;26.40;;;15.10;;
70457;SDS011;57919;56.194;95.716;2023-07-31T22:50:46;19.17;;;12.13;;
70457;SDS011;57919;56.194;95.716;2023-07-31T23:00:48;20.08;;;12.18;;
70457;SDS011;57919;56.194;95.716;2023-07-31T23:10:50;16.97;;;10.73;;
70457;SDS011;57919;56.194;95.716;2023-07-31T23:20:52;17.07;;;9.50;;
70457;SDS011;57919;56.194;95.716;2023-07-31T23:31:03;15.93;;;10.43;;
70457;SDS011;57919;56.194;95.716;2023-07-31T23:41:05;16.30;;;9.57;;
70457;SDS011;57919;56.194;95.716;2023-07-31T23:51:08;16.13;;;8.95;;
